createdAt,value
2023-04-12T00:18:21.658Z,19.6
2023-04-12T00:48:21.611Z,19.6
2023-04-12T01:18:21.625Z,19.6
2023-04-12T01:48:21.659Z,19.5
2023-04-12T02:18:21.603Z,19.5
2023-04-12T02:48:21.597Z,19.5
2023-04-12T03:18:21.301Z,19.5
2023-04-12T03:48:21.306Z,19.5
2023-04-12T04:18:21.612Z,19.8
2023-04-12T04:48:21.591Z,20.0
2023-04-12T05:18:21.598Z,20.1
2023-04-12T05:48:21.606Z,20.2
2023-04-12T06:18:21.580Z,20.4
2023-04-12T06:48:21.599Z,20.6
2023-04-12T07:18:21.607Z,20.7
2023-04-12T07:48:21.591Z,20.8
2023-04-12T08:18:21.579Z,20.9
2023-04-12T08:48:21.612Z,21.0
2023-04-12T09:18:21.366Z,21.0
2023-04-12T09:48:21.599Z,21.0
2023-04-12T10:18:21.625Z,21.1
2023-04-12T10:48:21.529Z,21.1
2023-04-12T11:18:21.561Z,21.1
2023-04-12T11:48:21.527Z,21.1
2023-04-12T12:18:21.615Z,21.1
2023-04-12T12:48:21.569Z,21.3
2023-04-12T13:18:21.564Z,21.4
2023-04-12T13:48:21.408Z,21.4
2023-04-12T14:18:21.525Z,21.3
2023-04-12T14:48:21.538Z,21.3
2023-04-12T15:18:21.500Z,21.1
2023-04-12T15:48:21.517Z,21.1
2023-04-12T16:18:21.512Z,21.1
2023-04-12T16:48:21.528Z,21.1
2023-04-12T17:18:21.289Z,21.1
2023-04-12T17:48:21.206Z,21.1
2023-04-12T18:18:21.563Z,21.0
2023-04-12T18:48:21.502Z,21.0
2023-04-12T19:18:21.482Z,20.9
2023-04-12T19:48:21.543Z,20.8
2023-04-12T20:18:21.493Z,20.6
2023-04-12T20:48:21.493Z,20.5
2023-04-12T21:18:21.499Z,20.5
2023-04-12T21:48:21.468Z,20.3
2023-04-12T22:18:21.465Z,20.3
2023-04-12T22:48:21.506Z,20.2
2023-04-12T23:18:21.485Z,20.1
2023-04-12T23:48:21.511Z,20.0
